Time;durP1;ratioP1;P1;durP2;ratioP2;P2;SDS_P1;SDS_P2;PMS_P1;PMS_P2;Temp;Humidity;BMP_temperature;BMP_pressure;BME280_temperature;BME280_humidity;BME280_pressure;Samples;Min_cycle;Max_cycle;Signal;HPM_P1;HPM_P2
2023/02/06 00:00:56;;;;;;;12.75;3.25;;;;;;;5.70;46.50;103785.13;4920086;29;20044;-74
2023/02/06 00:03:24;;;;;;;11.68;2.50;;;;;;;5.69;46.35;103777.88;4908589;28;20513;-74
2023/02/06 00:05:56;;;;;;;8.88;3.00;;;;;;;5.70;46.40;103792.38;4924716;29;20476;-74
2023/02/06 00:08:24;;;;;;;11.13;2.47;;;;;;;5.63;46.66;103781.59;4926309;28;20032;-74
2023/02/06 00:10:54;;;;;;;11.02;2.83;;;;;;;5.66;46.40;103772.50;4923966;28;20044;-74
2023/02/06 00:13:22;;;;;;;9.15;2.22;;;;;;;5.63;46.69;103778.00;4938489;28;20105;-73
2023/02/06 00:15:50;;;;;;;8.15;2.83;;;;;;;5.61;46.52;103766.28;4905341;28;20059;-74
2023/02/06 00:18:18;;;;;;;11.80;2.65;;;;;;;5.60;46.45;103768.09;4905966;28;20151;-75
2023/02/06 00:20:45;;;;;;;11.02;3.25;;;;;;;5.60;46.61;103769.91;4907033;28;20060;-74
2023/02/06 00:23:13;;;;;;;10.73;2.90;;;;;;;5.58;46.71;103764.50;4920037;28;20048;-74
2023/02/06 00:25:41;;;;;;;8.38;2.88;;;;;;;5.56;46.43;103760.91;4925693;28;20047;-74
2023/02/06 00:28:10;;;;;;;9.68;2.83;;;;;;;5.58;46.42;103755.47;4925311;28;20433;-74
2023/02/06 00:30:38;;;;;;;9.05;2.85;;;;;;;5.54;46.54;103751.91;4922327;28;20528;-75
2023/02/06 00:33:07;;;;;;;14.52;2.90;;;;;;;5.53;46.45;103746.53;4925267;28;20509;-74
2023/02/06 00:35:35;;;;;;;12.70;2.72;;;;;;;5.51;46.44;103748.38;4939657;28;20032;-74
2023/02/06 00:38:05;;;;;;;12.35;2.70;;;;;;;5.49;46.48;103742.97;4936761;28;20098;-74
2023/02/06 00:40:33;;;;;;;10.35;3.03;;;;;;;5.48;46.57;103754.75;4931414;28;20048;-75
2023/02/06 00:43:01;;;;;;;11.65;3.28;;;;;;;5.47;46.69;103741.19;4924855;28;20479;-74
2023/02/06 00:45:30;;;;;;;7.72;2.58;;;;;;;5.46;46.53;103740.28;4903868;28;20040;-75
2023/02/06 00:47:58;;;;;;;11.40;3.17;;;;;;;5.43;46.64;103737.66;4921883;28;20056;-74
2023/02/06 00:50:26;;;;;;;13.82;3.35;;;;;;;5.43;46.57;103742.19;4908528;28;20147;-74
2023/02/06 00:52:54;;;;;;;10.23;2.90;;;;;;;5.41;46.83;103742.22;4907203;28;20464;-74
2023/02/06 00:55:22;;;;;;;11.43;2.45;;;;;;;5.41;46.63;103744.03;4926003;28;20060;-74
2023/02/06 00:57:50;;;;;;;10.10;2.80;;;;;;;5.40;46.69;103744.97;4938588;28;20225;-74
2023/02/06 01:00:18;;;;;;;14.70;2.55;;;;;;;5.38;46.68;103744.13;4923439;28;20654;-74
2023/02/06 01:02:48;;;;;;;18.60;4.13;;;;;;;5.38;46.69;103738.69;4930520;28;20050;-74
2023/02/06 01:05:16;;;;;;;8.38;2.75;;;;;;;5.35;46.87;103725.16;4923506;28;20083;-74
2023/02/06 01:07:44;;;;;;;16.88;3.47;;;;;;;5.32;46.87;103726.13;4919064;28;20048;-73
2023/02/06 01:10:12;;;;;;;8.23;2.78;;;;;;;5.30;46.99;103731.56;4937797;28;20062;-74
2023/02/06 01:12:40;;;;;;;16.85;3.70;;;;;;;5.29;46.75;103734.34;4930438;29;20059;-75
2023/02/06 01:15:12;;;;;;;10.02;2.90;;;;;;;5.29;46.69;103745.19;4937977;28;20040;-75
2023/02/06 01:17:41;;;;;;;11.70;3.17;;;;;;;5.27;46.86;103733.47;4919473;28;20079;-72
2023/02/06 01:20:13;;;;;;;12.52;3.15;;;;;;;5.25;46.70;103738.91;4923041;28;20174;-75
2023/02/06 01:22:41;;;;;;;10.48;2.83;;;;;;;5.23;46.81;103735.34;4943593;28;20070;-75
2023/02/06 01:25:11;;;;;;;13.40;3.15;;;;;;;5.21;46.68;103742.59;4927880;29;20063;-75
2023/02/06 01:27:39;;;;;;;9.60;3.33;;;;;;;5.20;46.60;103734.53;4925543;29;20521;-75
2023/02/06 01:30:08;;;;;;;10.30;2.72;;;;;;;5.19;46.89;103738.16;4925024;28;20051;-74
2023/02/06 01:32:37;;;;;;;13.95;3.22;;;;;;;5.18;46.76;103739.06;4927445;28;20048;-74
2023/02/06 01:35:06;;;;;;;10.75;3.15;;;;;;;5.16;46.94;103736.34;4925894;28;20645;-74
2023/02/06 01:37:39;;;;;;;11.35;3.72;;;;;;;5.17;46.67;103739.97;4924379;28;20048;-74
2023/02/06 01:40:11;;;;;;;8.70;2.80;;;;;;;5.13;47.01;103743.69;4933530;28;20093;-74
2023/02/06 01:42:40;;;;;;;11.50;2.75;;;;;;;5.11;47.05;103750.94;4927601;28;20161;-74
2023/02/06 01:45:37;;;;;;;9.25;2.50;;;;;;;5.10;46.64;103752.75;4923237;28;20047;-74
2023/02/06 01:48:09;;;;;;;11.23;2.72;;;;;;;5.09;46.82;103742.81;4922362;28;20055;-74
2023/02/06 01:50:40;;;;;;;12.13;2.63;;;;;;;5.10;46.86;103747.34;4935152;28;20421;-74
2023/02/06 01:53:12;;;;;;;9.95;3.00;;;;;;;5.08;46.83;103748.28;4922425;28;20032;-74
2023/02/06 01:55:44;;;;;;;12.88;3.42;;;;;;;5.08;46.94;103748.28;4900278;28;21379;-74
2023/02/06 01:58:16;;;;;;;16.40;4.05;;;;;;;5.07;46.86;103751.91;4934030;28;20050;-74
2023/02/06 02:00:45;;;;;;;6.85;2.25;;;;;;;5.03;47.01;103745.66;4936624;29;20130;-74
2023/02/06 02:03:14;;;;;;;12.35;3.08;;;;;;;5.03;46.96;103745.66;4926671;29;20046;-74
2023/02/06 02:05:45;;;;;;;9.68;2.83;;;;;;;5.03;47.03;103742.06;4903662;29;20072;-75
2023/02/06 02:08:18;;;;;;;9.43;2.75;;;;;;;5.03;46.85;103753.81;4912436;28;20055;-75
2023/02/06 02:10:47;;;;;;;11.57;2.95;;;;;;;5.00;47.04;103750.22;4906896;28;20395;-74
2023/02/06 02:13:15;;;;;;;11.75;2.60;;;;;;;5.00;46.87;103750.22;4904940;28;20386;-74
2023/02/06 02:15:54;;;;;;;11.80;2.70;;;;;;;5.01;46.96;103749.31;4903051;28;20525;-75
2023/02/06 02:18:37;;;;;;;11.43;2.80;;;;;;;4.99;46.95;103746.63;4909130;28;20062;-74
2023/02/06 02:21:42;;;;;;;11.73;3.15;;;;;;;4.96;46.76;103744.00;4921685;28;20409;-74
2023/02/06 02:24:21;;;;;;;11.25;2.63;;;;;;;4.93;47.00;103738.59;4941785;28;20185;-74
2023/02/06 02:27:20;;;;;;;10.80;2.40;;;;;;;4.91;47.13;103732.31;4920776;29;20050;-73
2023/02/06 02:30:09;;;;;;;9.00;2.50;;;;;;;4.91;46.86;103727.78;4937462;28;20047;-73
2023/02/06 02:33:13;;;;;;;8.27;2.78;;;;;;;4.85;46.90;103724.28;4925761;29;20079;-73
2023/02/06 02:35:51;;;;;;;9.93;2.17;;;;;;;4.87;46.96;103717.00;4921501;28;20051;-73
2023/02/06 02:38:31;;;;;;;11.48;2.88;;;;;;;4.87;47.29;103711.59;4952605;23;20370;-84
2023/02/06 02:41:10;;;;;;;9.00;3.00;;;;;;;4.85;46.86;103714.31;4917072;28;20044;-83
2023/02/06 02:43:43;;;;;;;9.50;3.10;;;;;;;4.83;47.04;103721.59;4906420;28;20044;-81
2023/02/06 02:46:24;;;;;;;10.75;3.20;;;;;;;4.81;46.80;103725.25;4906019;28;20072;-84
2023/02/06 02:49:15;;;;;;;10.05;3.60;;;;;;;4.79;46.75;103724.41;4876894;28;20051;-82
2023/02/06 02:52:12;;;;;;;9.98;2.50;;;;;;;4.77;46.97;103731.66;4901543;28;20529;-81
2023/02/06 02:54:44;;;;;;;7.63;2.78;;;;;;;4.75;46.90;103730.78;4909549;28;20044;-81
2023/02/06 02:57:23;;;;;;;12.13;2.63;;;;;;;4.75;47.17;103736.22;4909850;28;20095;-82
2023/02/06 03:00:02;;;;;;;13.70;2.80;;;;;;;4.74;46.96;103734.41;4886850;28;20060;-83
2023/02/06 03:02:37;;;;;;;8.65;2.78;;;;;;;4.73;47.14;103743.47;4913211;28;20519;-81
2023/02/06 03:05:11;;;;;;;10.82;2.92;;;;;;;4.71;46.96;103734.50;4865631;28;20091;-84
2023/02/06 03:07:53;;;;;;;7.70;2.67;;;;;;;4.71;47.08;103743.53;4894031;28;20048;-82
2023/02/06 03:10:33;;;;;;;10.85;2.78;;;;;;;4.69;47.05;103739.94;4913635;28;20451;-81
2023/02/06 03:13:15;;;;;;;11.90;3.15;;;;;;;4.69;47.19;103734.50;4892643;28;20054;-84
2023/02/06 03:15:52;;;;;;;11.43;3.00;;;;;;;4.68;47.10;103739.97;4905069;29;20044;-82
2023/02/06 03:18:30;;;;;;;10.57;2.35;;;;;;;4.68;47.25;103735.44;4916925;28;20052;-83
2023/02/06 03:21:01;;;;;;;11.93;3.40;;;;;;;4.66;46.96;103741.78;4925715;28;20068;-85
2023/02/06 03:23:33;;;;;;;10.55;2.92;;;;;;;4.67;47.18;103738.16;4927097;28;20048;-82
2023/02/06 03:26:06;;;;;;;10.18;3.33;;;;;;;4.65;47.22;103730.03;4918955;29;20067;-83
2023/02/06 03:28:38;;;;;;;8.00;2.33;;;;;;;4.65;47.24;103730.03;4909935;28;20044;-83
2023/02/06 03:31:09;;;;;;;12.52;2.63;;;;;;;4.65;47.13;103729.16;4910318;28;20521;-81
2023/02/06 03:33:43;;;;;;;10.85;2.85;;;;;;;4.65;46.92;103738.19;4908419;28;20052;-82
2023/02/06 03:36:15;;;;;;;11.98;2.63;;;;;;;4.63;47.21;103736.44;4904134;28;20048;-86
2023/02/06 03:38:48;;;;;;;10.45;2.83;;;;;;;4.62;47.05;103735.53;4883884;28;20055;-82
2023/02/06 03:41:24;;;;;;;12.35;2.97;;;;;;;4.60;47.27;103733.75;4899890;28;20144;-82
2023/02/06 03:43:55;;;;;;;9.40;2.70;;;;;;;4.60;47.08;103728.34;4903949;28;20041;-81
2023/02/06 03:46:39;;;;;;;12.65;2.88;;;;;;;4.60;46.92;103728.34;4947490;28;20053;-82
2023/02/06 03:49:12;;;;;;;10.43;2.75;;;;;;;4.57;47.16;103729.28;4884434;28;20044;-81
2023/02/06 03:51:45;;;;;;;10.32;3.08;;;;;;;4.53;47.22;103725.75;4926187;28;20093;-82
2023/02/06 03:54:18;;;;;;;9.23;2.90;;;;;;;4.51;47.18;103716.72;4907408;28;20135;-81
2023/02/06 03:56:51;;;;;;;12.52;3.25;;;;;;;4.51;47.04;103721.25;4908475;29;20487;-82
2023/02/06 03:59:22;;;;;;;;;;;;;;;4.27;47.51;103730.69;4908984;28;20044;-80
2023/02/06 04:01:54;;;;;;;7.88;2.17;;;;;;;4.45;47.12;103724.06;4906702;29;19946;-82
2023/02/06 04:04:33;;;;;;;10.65;2.50;;;;;;;4.46;47.10;103726.78;4920304;28;20443;-81
2023/02/06 04:07:13;;;;;;;8.68;2.80;;;;;;;4.47;46.96;103723.09;4911857;29;20044;-82
2023/02/06 04:10:05;;;;;;;9.25;2.60;;;;;;;4.45;46.76;103715.94;4907804;29;20048;-82
2023/02/06 04:12:33;;;;;;;9.63;3.30;;;;;;;4.39;46.91;103724.16;4911349;28;20053;-82
2023/02/06 04:15:01;;;;;;;10.15;3.25;;;;;;;4.39;47.00;103722.34;4905752;28;20201;-81
2023/02/06 04:17:29;;;;;;;9.80;2.97;;;;;;;4.40;46.87;103725.94;4911363;28;20044;-82
2023/02/06 04:20:16;;;;;;;9.23;3.00;;;;;;;4.37;46.87;103721.50;4909572;28;20115;-82
2023/02/06 04:22:44;;;;;;;8.95;2.95;;;;;;;4.37;46.92;103728.72;4907892;28;20044;-83
2023/02/06 04:25:14;;;;;;;7.60;2.55;;;;;;;4.36;46.64;103730.53;4911897;28;20211;-82
2023/02/06 04:27:41;;;;;;;11.45;2.78;;;;;;;4.35;47.11;103741.41;4906387;28;20116;-81
2023/02/06 04:30:12;;;;;;;9.77;2.90;;;;;;;4.34;46.79;103742.31;4919033;28;20075;-82
2023/02/06 04:32:40;;;;;;;9.98;2.88;;;;;;;4.32;46.91;103747.75;4924549;28;20059;-81
2023/02/06 04:35:11;;;;;;;9.05;2.80;;;;;;;4.31;46.80;103750.50;4906148;28;20051;-81
2023/02/06 04:37:39;;;;;;;8.60;2.63;;;;;;;4.29;46.85;103755.97;4908438;28;20076;-84
2023/02/06 04:40:08;;;;;;;11.85;3.08;;;;;;;4.29;46.93;103749.66;4907277;28;20139;-82
2023/02/06 04:42:37;;;;;;;8.80;2.97;;;;;;;4.29;46.77;103749.66;4909075;28;20056;-82
2023/02/06 04:45:05;;;;;;;10.18;3.00;;;;;;;4.27;47.08;103751.47;4906186;28;20040;-82
2023/02/06 04:47:48;;;;;;;10.25;3.50;;;;;;;4.24;46.90;103757.81;4906850;28;20047;-81
2023/02/06 04:50:17;;;;;;;12.68;3.40;;;;;;;4.24;47.09;103763.25;4909852;28;20049;-81
2023/02/06 04:52:45;;;;;;;9.63;3.20;;;;;;;4.23;47.03;103760.56;4907806;28;20211;-81
2023/02/06 04:55:12;;;;;;;8.20;2.83;;;;;;;4.22;46.89;103764.22;4887416;28;20129;-81
2023/02/06 04:57:42;;;;;;;11.55;3.67;;;;;;;4.23;46.88;103755.13;4910603;28;20127;-82
2023/02/06 05:00:12;;;;;;;9.25;3.03;;;;;;;4.21;46.58;103759.72;4880035;28;20050;-82
2023/02/06 05:02:41;;;;;;;8.65;2.97;;;;;;;4.19;46.87;103761.53;4906551;28;20135;-81
2023/02/06 05:05:10;;;;;;;12.07;3.10;;;;;;;4.18;47.00;103757.94;4888305;28;20036;-82
2023/02/06 05:07:38;;;;;;;10.68;3.20;;;;;;;4.18;46.61;103762.44;4913580;28;20048;-81
2023/02/06 05:10:07;;;;;;;10.90;3.60;;;;;;;4.15;46.66;103764.28;4909412;28;20545;-82
2023/02/06 05:12:36;;;;;;;10.70;3.20;;;;;;;4.15;46.84;103769.69;4910418;28;20040;-81
2023/02/06 05:15:15;;;;;;;9.63;3.28;;;;;;;4.15;46.54;103764.28;4903375;28;20044;-82
2023/02/06 05:18:01;;;;;;;13.40;4.00;;;;;;;4.13;46.60;103765.25;4923803;29;20076;-82
2023/02/06 05:20:29;;;;;;;11.30;3.50;;;;;;;4.10;46.91;103770.69;4908576;28;20045;-82
2023/02/06 05:22:57;;;;;;;10.80;3.47;;;;;;;4.10;46.66;103771.59;4916270;28;20044;-82
2023/02/06 05:25:25;;;;;;;11.15;3.63;;;;;;;4.09;46.89;103758.06;4928555;28;20044;-81
2023/02/06 05:28:05;;;;;;;10.15;3.30;;;;;;;4.06;46.92;103750.84;4912786;28;20063;-82
2023/02/06 05:30:35;;;;;;;9.48;3.25;;;;;;;4.07;46.94;103755.38;4911478;28;20033;-81
2023/02/06 05:33:02;;;;;;;8.93;3.70;;;;;;;4.04;47.08;103751.81;4912637;29;20053;-81
2023/02/06 05:35:30;;;;;;;13.50;3.45;;;;;;;4.03;47.03;103756.34;4913188;28;20075;-81
2023/02/06 05:37:58;;;;;;;10.80;3.28;;;;;;;4.03;46.95;103752.72;4913481;28;20051;-82
2023/02/06 05:40:27;;;;;;;10.27;3.45;;;;;;;4.01;46.96;103744.63;4915774;29;20048;-81
2023/02/06 05:42:55;;;;;;;11.55;3.40;;;;;;;4.01;46.90;103738.31;4913325;29;20114;-81
2023/02/06 05:45:23;;;;;;;12.05;3.40;;;;;;;4.01;47.09;103739.19;4913270;28;20131;-82
2023/02/06 05:47:53;;;;;;;8.82;3.42;;;;;;;4.01;47.12;103738.31;4908605;28;21447;-81
2023/02/06 05:50:22;;;;;;;11.90;3.60;;;;;;;4.00;47.15;103737.41;4898094;28;20083;-81
2023/02/06 05:52:51;;;;;;;13.02;3.80;;;;;;;4.01;47.24;103735.59;4912482;28;20040;-81
2023/02/06 05:55:19;;;;;;;8.80;3.67;;;;;;;4.00;47.21;103736.50;4908617;29;20067;-81
2023/02/06 05:57:48;;;;;;;10.95;3.83;;;;;;;3.99;47.05;103727.47;4914361;28;20064;-81
2023/02/06 06:00:17;;;;;;;14.10;4.25;;;;;;;4.00;47.37;103729.28;4927924;28;20059;-80
2023/02/06 06:02:45;;;;;;;10.07;3.42;;;;;;;4.00;47.34;103725.66;4912266;28;20048;-83
2023/02/06 06:05:14;;;;;;;9.43;3.28;;;;;;;4.00;47.34;103729.28;4911559;29;20040;-81
2023/02/06 06:07:42;;;;;;;9.38;3.30;;;;;;;3.99;47.43;103734.72;4911022;28;20037;-81
2023/02/06 06:10:11;;;;;;;12.70;3.60;;;;;;;4.00;47.42;103736.50;4907533;28;20049;-81
2023/02/06 06:12:50;;;;;;;9.85;3.75;;;;;;;4.00;47.73;103737.41;4913007;28;20048;-82
2023/02/06 06:15:21;;;;;;;9.00;3.17;;;;;;;3.99;47.43;103729.28;4926393;28;20048;-81
2023/02/06 06:17:52;;;;;;;11.73;3.90;;;;;;;4.00;47.57;103723.84;4913790;28;20047;-81
2023/02/06 06:20:27;;;;;;;11.85;3.95;;;;;;;4.01;47.71;103730.19;4907287;28;20056;-81
2023/02/06 06:23:01;;;;;;;10.90;4.05;;;;;;;4.01;47.76;103728.34;4913801;28;20155;-81
2023/02/06 06:25:30;;;;;;;11.90;4.38;;;;;;;4.01;47.94;103720.22;4950887;28;20060;-81
2023/02/06 06:27:59;;;;;;;10.57;4.28;;;;;;;4.03;47.86;103723.81;4909922;28;20451;-82
2023/02/06 06:30:27;;;;;;;11.73;4.45;;;;;;;4.02;47.72;103719.31;4900925;28;20036;-81
2023/02/06 06:32:55;;;;;;;10.15;4.15;;;;;;;4.04;47.71;103724.72;4913268;28;20052;-82
2023/02/06 06:35:27;;;;;;;14.25;3.95;;;;;;;4.04;47.64;103716.59;4923270;28;20140;-81
2023/02/06 06:37:55;;;;;;;12.70;4.73;;;;;;;4.03;47.88;103725.63;4936087;28;20075;-80
2023/02/06 06:40:23;;;;;;;13.13;4.45;;;;;;;4.05;47.74;103729.22;4944272;28;20048;-81
2023/02/06 06:42:51;;;;;;;12.90;3.85;;;;;;;4.06;47.62;103729.19;4914347;28;20052;-81
2023/02/06 06:45:19;;;;;;;11.25;3.97;;;;;;;4.06;47.64;103733.69;4927262;28;20091;-81
2023/02/06 06:47:47;;;;;;;9.55;3.58;;;;;;;4.08;47.74;103737.28;4915654;28;20131;-82
2023/02/06 06:50:15;;;;;;;13.20;4.93;;;;;;;4.06;47.65;103740.00;4913770;28;20419;-81
2023/02/06 06:52:44;;;;;;;11.52;4.32;;;;;;;4.08;47.95;103740.00;4912819;28;20067;-81
2023/02/06 06:55:12;;;;;;;11.63;4.55;;;;;;;4.06;47.68;103731.00;4918054;28;20202;-82
2023/02/06 06:57:40;;;;;;;16.50;5.20;;;;;;;4.07;48.03;103730.06;4924828;28;20052;-81
2023/02/06 07:00:10;;;;;;;15.45;6.00;;;;;;;4.07;47.84;103732.78;4910919;28;20498;-83
2023/02/06 07:02:38;;;;;;;16.10;5.70;;;;;;;4.06;47.68;103736.41;4905661;28;20055;-81
2023/02/06 07:05:07;;;;;;;15.73;5.80;;;;;;;4.06;47.92;103748.16;4943002;28;20620;-83
2023/02/06 07:07:35;;;;;;;14.02;5.72;;;;;;;4.06;47.99;103740.00;4908810;28;20135;-82
2023/02/06 07:10:06;;;;;;;15.07;6.47;;;;;;;4.07;48.04;103741.81;4914304;28;20036;-82
2023/02/06 07:12:34;;;;;;;14.38;5.72;;;;;;;4.05;48.06;103734.66;4928803;28;20048;-81
2023/02/06 07:15:02;;;;;;;15.65;6.60;;;;;;;4.07;48.22;103730.06;4911762;29;20557;-81
2023/02/06 07:17:30;;;;;;;13.45;6.15;;;;;;;4.05;48.11;103730.13;4908837;28;20533;-82
2023/02/06 07:19:58;;;;;;;15.93;6.18;;;;;;;4.06;48.12;103734.59;4896964;28;20089;-81
2023/02/06 07:22:27;;;;;;;14.20;6.72;;;;;;;4.05;47.98;103730.13;4907638;29;20419;-82
2023/02/06 07:24:57;;;;;;;16.88;6.57;;;;;;;4.08;48.14;103734.59;4906014;28;20042;-82
2023/02/06 07:27:33;;;;;;;17.67;6.60;;;;;;;4.06;48.25;103737.31;4911730;28;20052;-82
2023/02/06 07:30:01;;;;;;;16.65;7.10;;;;;;;4.06;47.99;103739.13;4906311;28;20132;-82
2023/02/06 07:32:34;;;;;;;16.17;6.82;;;;;;;4.08;48.42;103740.00;4910562;28;20048;-82
2023/02/06 07:35:03;;;;;;;15.90;6.55;;;;;;;4.07;48.31;103739.09;4923980;28;20134;-81
2023/02/06 07:37:31;;;;;;;18.60;7.13;;;;;;;4.07;48.29;103730.97;4916347;28;20094;-81
2023/02/06 07:39:59;;;;;;;14.38;6.85;;;;;;;4.07;48.47;103738.22;4916409;28;20048;-81
2023/02/06 07:42:26;;;;;;;15.25;6.97;;;;;;;4.06;48.30;103731.88;4917894;28;20057;-81
2023/02/06 07:45:00;;;;;;;16.85;7.40;;;;;;;4.06;48.33;103740.00;4912215;28;20484;-81
2023/02/06 07:47:28;;;;;;;12.77;7.13;;;;;;;4.07;48.31;103730.97;4921057;28;20075;-81
2023/02/06 07:49:56;;;;;;;16.05;7.07;;;;;;;4.08;48.41;103731.88;4913318;28;20039;-81
2023/02/06 07:52:24;;;;;;;16.35;7.40;;;;;;;4.06;48.40;103718.34;4920744;28;20075;-81
2023/02/06 07:54:52;;;;;;;19.23;7.28;;;;;;;4.08;48.29;103729.16;4924751;28;20036;-81
2023/02/06 07:57:20;;;;;;;17.63;7.65;;;;;;;4.06;48.72;103731.00;4923120;28;20059;-82
2023/02/06 07:59:51;;;;;;;18.25;7.90;;;;;;;4.06;48.49;103736.41;4895298;28;20055;-81
2023/02/06 08:02:20;;;;;;;21.00;7.78;;;;;;;4.06;48.86;103734.59;4923205;29;20044;-81
2023/02/06 08:04:48;;;;;;;23.15;7.30;;;;;;;4.06;48.60;103729.19;4912751;29;20079;-81
2023/02/06 08:07:16;;;;;;;17.40;6.90;;;;;;;4.06;48.74;103721.03;4912244;29;20143;-81
2023/02/06 08:09:47;;;;;;;16.13;7.15;;;;;;;4.06;48.72;103726.47;4913875;28;20046;-81
2023/02/06 08:12:15;;;;;;;16.45;6.40;;;;;;;4.08;48.77;103734.59;4908975;29;20048;-82
2023/02/06 08:14:44;;;;;;;15.43;7.07;;;;;;;4.08;48.73;103732.75;4917431;28;20044;-81
2023/02/06 08:17:12;;;;;;;16.58;7.28;;;;;;;4.10;48.86;103730.03;4914775;28;20486;-81
2023/02/06 08:19:42;;;;;;;15.55;6.78;;;;;;;4.12;49.06;103741.75;4903229;28;20048;-81
2023/02/06 08:22:10;;;;;;;17.10;6.95;;;;;;;4.11;48.98;103732.72;4901880;28;20102;-81
2023/02/06 08:24:38;;;;;;;12.63;6.82;;;;;;;4.13;48.97;103733.63;4908099;29;20048;-81
2023/02/06 08:27:06;;;;;;;14.15;7.20;;;;;;;4.14;49.04;103729.09;4905108;28;20056;-81
2023/02/06 08:29:41;;;;;;;14.70;6.57;;;;;;;4.16;49.26;103725.41;4917039;29;20511;-81
2023/02/06 08:32:09;;;;;;;14.32;6.50;;;;;;;4.18;49.07;103727.22;4914403;29;20056;-81
2023/02/06 08:34:38;;;;;;;18.83;7.05;;;;;;;4.20;49.12;103739.84;4904727;28;20052;-81
2023/02/06 08:37:07;;;;;;;13.65;6.05;;;;;;;4.22;49.07;103745.25;4928962;23;20126;-77
2023/02/06 08:39:36;;;;;;;15.35;6.78;;;;;;;4.21;49.15;103738.03;4927842;28;20058;-77
2023/02/06 08:42:05;;;;;;;14.00;6.47;;;;;;;4.23;49.11;103737.06;4913882;28;20071;-77
2023/02/06 08:44:32;;;;;;;14.07;6.90;;;;;;;4.25;49.21;103728.91;4907638;28;20052;-77
2023/02/06 08:47:00;;;;;;;13.60;6.28;;;;;;;4.26;49.03;103731.59;4906999;28;20049;-77
2023/02/06 08:49:37;;;;;;;12.85;6.65;;;;;;;4.27;49.18;103725.25;4906611;28;20426;-77
2023/02/06 08:52:05;;;;;;;12.55;6.03;;;;;;;4.30;49.01;103716.19;4894064;28;20098;-78
2023/02/06 08:54:35;;;;;;;10.95;5.47;;;;;;;4.32;49.26;103731.50;4899171;28;20168;-78
2023/02/06 08:57:06;;;;;;;13.97;5.67;;;;;;;4.29;49.14;103731.56;4912883;29;20075;-78
2023/02/06 08:59:33;;;;;;;11.48;5.78;;;;;;;4.32;49.07;103720.66;4898263;28;20134;-78
2023/02/06 09:02:01;;;;;;;12.35;5.50;;;;;;;4.32;49.03;103739.63;4895171;29;20107;-78
2023/02/06 09:04:31;;;;;;;11.57;5.32;;;;;;;4.33;49.33;103741.41;4899924;28;20068;-76
2023/02/06 09:07:01;;;;;;;9.75;5.30;;;;;;;4.35;48.98;103749.53;4902737;29;20044;-75
2023/02/06 09:09:29;;;;;;;13.07;5.50;;;;;;;4.34;49.09;103751.34;4923936;28;20059;-75
2023/02/06 09:12:02;;;;;;;10.85;5.28;;;;;;;4.37;49.26;103750.41;4928892;28;20048;-75
2023/02/06 09:14:31;;;;;;;12.88;5.45;;;;;;;4.35;49.21;103738.69;4926497;28;20076;-75
2023/02/06 09:16:58;;;;;;;11.43;5.30;;;;;;;4.37;49.12;103736.88;4925274;28;20064;-77
2023/02/06 09:19:26;;;;;;;14.13;6.05;;;;;;;4.37;49.00;103748.59;4921972;28;20044;-76
2023/02/06 09:21:55;;;;;;;13.07;6.25;;;;;;;4.39;49.18;103743.13;4909287;28;20091;-75
2023/02/06 09:24:22;;;;;;;9.93;5.18;;;;;;;4.40;49.08;103736.78;4912970;28;20048;-75
2023/02/06 09:26:50;;;;;;;12.57;5.63;;;;;;;4.41;49.36;103738.59;4922821;29;20041;-76
2023/02/06 09:29:30;;;;;;;10.93;5.40;;;;;;;4.44;49.40;103734.03;4924100;29;20066;-76
2023/02/06 09:31:58;;;;;;;13.05;6.38;;;;;;;4.45;49.30;103733.09;4917031;28;20044;-76
2023/02/06 09:34:27;;;;;;;14.68;6.40;;;;;;;4.48;49.46;103732.13;4917398;28;20047;-76
2023/02/06 09:36:55;;;;;;;14.60;6.40;;;;;;;4.50;49.54;103735.72;4917452;28;20505;-75
2023/02/06 09:39:24;;;;;;;14.07;6.60;;;;;;;4.52;49.68;103731.19;4925244;28;20047;-75
2023/02/06 09:41:53;;;;;;;14.48;7.05;;;;;;;4.54;49.40;103740.19;4925993;29;20080;-75
2023/02/06 09:44:28;;;;;;;13.05;6.07;;;;;;;4.57;49.27;103744.66;4941292;28;20051;-75
2023/02/06 09:46:59;;;;;;;16.50;7.50;;;;;;;4.58;49.39;103741.91;4944697;29;20043;-75
2023/02/06 09:49:35;;;;;;;14.82;6.65;;;;;;;4.59;49.47;103740.09;4931623;29;20070;-75
2023/02/06 09:52:35;;;;;;;14.10;7.15;;;;;;;4.61;49.64;103746.41;4930745;29;20059;-75
2023/02/06 09:55:10;;;;;;;11.98;6.40;;;;;;;4.63;49.96;103741.88;4923527;28;20482;-75
2023/02/06 09:57:45;;;;;;;15.00;6.07;;;;;;;4.64;49.84;103740.91;4922163;29;20048;-75
2023/02/06 10:00:28;;;;;;;12.63;6.03;;;;;;;4.68;49.76;103753.53;4942392;29;20475;-76
2023/02/06 10:03:17;;;;;;;12.80;5.72;;;;;;;4.67;50.02;103747.19;4932502;29;20048;-76
2023/02/06 10:05:53;;;;;;;13.73;6.22;;;;;;;4.71;50.00;103748.06;4931182;29;20051;-76
2023/02/06 10:08:24;;;;;;;14.10;5.70;;;;;;;4.74;49.64;103753.41;4932478;28;20413;-75
2023/02/06 10:10:54;;;;;;;11.48;5.70;;;;;;;4.75;49.56;103750.69;4917990;29;20040;-75
2023/02/06 10:13:28;;;;;;;17.63;6.47;;;;;;;4.77;49.61;103754.25;4944188;28;20459;-75
2023/02/06 10:16:01;;;;;;;12.43;5.57;;;;;;;4.80;49.42;103756.91;4927071;28;20525;-75
2023/02/06 10:18:36;;;;;;;17.00;6.88;;;;;;;4.80;49.24;103764.19;4930127;29;20051;-75
2023/02/06 10:21:10;;;;;;;15.60;5.75;;;;;;;4.81;49.14;103764.13;4932110;29;20122;-75
2023/02/06 10:23:45;;;;;;;13.05;5.28;;;;;;;4.82;49.06;103763.22;4931240;28;20545;-78
2023/02/06 10:26:17;;;;;;;12.15;5.03;;;;;;;4.81;49.07;103761.41;4913586;29;20052;-77
2023/02/06 10:28:48;;;;;;;11.30;5.80;;;;;;;4.82;48.91;103751.47;4911766;28;20419;-76
2023/02/06 10:31:27;;;;;;;13.65;5.85;;;;;;;4.84;49.11;103750.53;4931814;29;20075;-78
2023/02/06 10:34:14;;;;;;;12.48;6.07;;;;;;;4.84;49.18;103744.19;4927200;29;20395;-76
2023/02/06 10:36:55;;;;;;;13.85;5.70;;;;;;;4.85;49.53;103743.28;4914006;29;20040;-76
2023/02/06 10:39:42;;;;;;;12.02;5.05;;;;;;;4.86;49.03;103726.97;4930415;28;20050;-75
2023/02/06 10:42:17;;;;;;;12.05;5.05;;;;;;;4.89;49.52;103731.44;4921621;28;20568;-75
2023/02/06 10:44:54;;;;;;;10.93;5.25;;;;;;;4.93;49.20;103735.88;4929602;28;20117;-75
2023/02/06 10:47:32;;;;;;;;;;;;;;;4.71;49.82;103731.78;4912520;29;20047;-76
2023/02/06 10:50:19;;;;;;;12.13;4.90;;;;;;;4.96;49.49;103729.53;4927304;28;19923;-76
2023/02/06 10:52:48;;;;;;;9.15;4.95;;;;;;;5.01;49.35;103723.06;4923775;28;20139;-76
2023/02/06 10:55:22;;;;;;;11.40;5.03;;;;;;;5.08;49.11;103710.28;4915586;28;20143;-75
2023/02/06 10:58:03;;;;;;;12.52;5.45;;;;;;;5.13;49.14;103705.66;4930178;29;20051;-76
2023/02/06 11:00:31;;;;;;;10.32;5.38;;;;;;;5.17;49.43;103705.59;4949304;28;20087;-75
2023/02/06 11:03:05;;;;;;;14.43;5.53;;;;;;;5.23;49.53;103699.13;4939280;28;20048;-76
2023/02/06 11:05:36;;;;;;;12.02;5.25;;;;;;;5.27;49.35;103695.44;4909810;28;20624;-76
2023/02/06 11:08:13;;;;;;;9.35;4.75;;;;;;;5.32;48.97;103698.97;4925981;29;20055;-75
2023/02/06 11:10:41;;;;;;;11.40;4.88;;;;;;;5.35;49.29;103704.34;4915240;28;20048;-75
2023/02/06 11:13:13;;;;;;;13.98;4.95;;;;;;;5.41;48.95;103693.34;4916290;28;20099;-76
2023/02/06 11:15:56;;;;;;;11.20;4.68;;;;;;;5.45;48.83;103699.63;4902292;28;20047;-76
2023/02/06 11:18:29;;;;;;;12.90;5.28;;;;;;;5.48;48.94;103707.69;4909820;29;20586;-76
2023/02/06 11:20:59;;;;;;;10.00;5.03;;;;;;;5.53;49.17;103695.81;4903723;28;20052;-76
2023/02/06 11:23:28;;;;;;;13.48;4.95;;;;;;;5.58;48.90;103691.16;4901320;29;20127;-77
2023/02/06 11:26:05;;;;;;;10.90;4.80;;;;;;;5.63;48.50;103691.03;4894804;28;20423;-75
2023/02/06 11:28:34;;;;;;;11.30;5.32;;;;;;;5.63;48.93;103683.78;4900391;29;20106;-75
2023/02/06 11:31:05;;;;;;;10.45;4.60;;;;;;;5.67;48.32;103682.81;4926301;29;20047;-75
2023/02/06 11:33:40;;;;;;;9.30;4.35;;;;;;;5.71;48.08;103674.59;4918212;28;20071;-75
2023/02/06 11:36:23;;;;;;;10.82;4.10;;;;;;;5.75;48.16;103677.19;4910593;29;20049;-76
2023/02/06 11:38:57;;;;;;;9.90;4.07;;;;;;;5.77;48.27;103679.88;4929209;28;20111;-75
2023/02/06 11:41:25;;;;;;;10.75;4.80;;;;;;;5.78;48.52;103677.16;4926148;29;20046;-75
2023/02/06 11:44:00;;;;;;;12.15;5.10;;;;;;;5.83;48.14;103672.47;4925584;28;20102;-75
2023/02/06 11:46:31;;;;;;;13.98;5.40;;;;;;;5.85;48.27;103665.19;4929221;28;20048;-75
2023/02/06 11:49:05;;;;;;;11.68;4.55;;;;;;;5.89;47.88;103658.75;4920141;28;20049;-75